Aérodrome :







RETROUVEZ-NOUS SUR...

 
LOGIN :

S'inscrire | Disclaimer

   EN    FR    IT 

 









Légende :    VFR   VFR Marginal   IFR   IFR Intensif   IFR Très Intensif
Visi : 
Plafond : 
>= 8 km
>= 3000ft
5 à 8 km
1000 à 3000 ft
1500m à 5 km
500 à 1000 ft
800 à 1500m
200 à 500 ft
< 800m
< 200 ft
Symboles :   Orages  Brouillard  Fortes neiges  Fortes précipitations  Vent > 20 kt






- Altitude de l'aérodrome : 270 ft
- Code IATA : YMX


CYMX - Montreal International Mirabel

DERNIER METAR :
  • 200400Z 21002KT 15SM FEW022 OVC060 M02/M03 A2992 RMK SC2SC6 SLP137

METARs EXPIRÉS :
  • 200300Z 00000KT 20SM SCT020 OVC040 M02/M02 A2991 RMK SC4SC4 SLP136
  • 200200Z 00000KT 20SM BKN023 OVC075 M01/M02 A2992 RMK SC5AC3 SLP137

TAF AMD TAF CYMX
Valide du 20 à 02h jusqu'au 21 à 00h UTC


200202Z 2002/2024 VRB03KT P6SM SCT020 OVC070
TEMPO 2002/2008 BKN020 OVC050
FM200800 VRB03KT 4SM -SN OVC020
PROB30 2008/2012 2SM -FZDZ BR SCT006 OVC020
FM201200 VRB03KT 3SM -SN BR BKN006 OVC015
PROB40 2012/2020 2SM -FZDZ BR
FM202000 VRB03KT 6SM -SN BKN020 OVC050 RMK NXT FCST BY 200600Z



MET'MAP, la Météo Aéronautique d'un coup d'oeil ! - Copyright ORBIFLY Décembre 2007 - Disclaimer

ORBIFLY MET'MAP TEAM :

Programmation & Développement : Alexandra Zaïnal
Conception & Développement : Baudouin d'Aumeries
Co-Programmation & Développement : Marc-Olivier Méhu
Soutien technique & logistique : Manuel Goepfert

Contact : metmap@orbifly.com




SOURCES & CREDITS :

   NOAA